Terminal Aerodrome Forecast
Issued by NWS

Home | Current Version | Previous Version | Text Only | Print | Product List | Glossary On
Versions: 1 2 3 4 5 6 7 8 9 10 11 12 13 14 15 16 17 18
929
FTUS42 KFFC 280543
TAFRYY
TAF
KRYY 280543Z 2806/2906 33012G25KT 4SM -TSRA BR BKN025CB
     FM280700 29005KT P6SM VCSH BKN020
     FM281400 25008KT P6SM BKN025
     FM281600 25010G18KT P6SM BKN035
     FM282000 25010G20KT P6SM BKN050
     FM290100 25007KT P6SM BKN100
      AMD NOT SKED TIL 281200=

USA.gov is the U.S. government's official web portal to all federal, state and local government web resources and services.